^^
Saratoga-Weather Station Historical Data
Daily Summary for September 22, 2021 Units:  Metric    English   Both
Daily Weekly Monthly Yearly Custom
  High: Low: Average:
Temperature: 20.1 °C 8.1 °C 13.6 °C
Dew Point: 12 °C 6.7 °C 8.8 °C
Humidity: 92% 53% 75%
Wind Speed: 14.5km/h 0km/h 1.3km/h
Wind Gust: 16.1km/h - -
Wind- - ESE
Pressure: 1029.5 hPa 1024.7 hPa -
Precipitation: 0.0 mm    
Historical Graphs
 
 
Tabular Data for September 22, 2021
Time Temperature Dew Point Pressure Wind Wind Speed Wind Gust Humidity Rainfall Rate (Hourly) solar
00:00 10.6 °C 8 °C 1029.5 hPa Calm     84% 0.0 mm 0 W/m2
00:05 10.6 °C 8 °C 1029.5 hPa SSW 1.4 km/h 1.6 km/h 84% 0.0 mm 0 W/m2
00:10 10.5 °C 7.9 °C 1029.5 hPa SSW 1.4 km/h 3.2 km/h 84% 0.0 mm 0 W/m2
00:15 10.4 °C 7.8 °C 1029.5 hPa Calm   1.6 km/h 84% 0.0 mm 0 W/m2
00:20 10.4 °C 7.8 °C 1029.5 hPa Calm   3.2 km/h 84% 0.0 mm 0 W/m2
00:25 10.5 °C 7.9 °C 1029.5 hPa SSW 1.4 km/h 3.2 km/h 84% 0.0 mm 0 W/m2
00:30 10.5 °C 7.9 °C 1029.5 hPa Calm     84% 0.0 mm 0 W/m2
00:35 10.6 °C 8 °C 1029.5 hPa Calm   3.2 km/h 84% 0.0 mm 0 W/m2
00:40 10.6 °C 8 °C 1029.5 hPa Calm     84% 0.0 mm 0 W/m2
00:45 10.5 °C 7.9 °C 1029.1 hPa SSW 1.4 km/h 1.6 km/h 84% 0.0 mm 0 W/m2
00:50 10.4 °C 7.8 °C 1029.1 hPa Calm     84% 0.0 mm 0 W/m2
00:55 10.3 °C 7.7 °C 1029.1 hPa SSW 1.4 km/h 1.6 km/h 84% 0.0 mm 0 W/m2
01:00 10.3 °C 7.7 °C 1029.1 hPa Calm   1.6 km/h 84% 0.0 mm 0 W/m2
01:06 10.2 °C 7.8 °C 1029.1 hPa SSW 3.2 km/h 3.2 km/h 85% 0.0 mm 0 W/m2
01:11 10.1 °C 7.7 °C 1029.1 hPa SSW 1.4 km/h 3.2 km/h 85% 0.0 mm 0 W/m2
01:16 10.1 °C 7.7 °C 1029.1 hPa Calm   1.6 km/h 85% 0.0 mm 0 W/m2
01:21 9.9 °C 7.7 °C 1029.1 hPa SSW 3.2 km/h 3.2 km/h 86% 0.0 mm 0 W/m2
01:26 9.9 °C 7.7 °C 1029.1 hPa Calm   1.6 km/h 86% 0.0 mm 0 W/m2
01:31 9.8 °C 7.6 °C 1029.1 hPa Calm     86% 0.0 mm 0 W/m2
01:48 9.7 °C 7.6 °C 1028.8 hPa Calm     87% 0.0 mm 0 W/m2
01:53 9.7 °C 7.6 °C 1028.8 hPa Calm     87% 0.0 mm 0 W/m2
01:58 9.6 °C 7.5 °C 1028.8 hPa Calm     87% 0.0 mm 0 W/m2
02:03 9.6 °C 7.5 °C 1028.5 hPa Calm     87% 0.0 mm 0 W/m2
02:08 9.4 °C 7.3 °C 1028.8 hPa Calm     87% 0.0 mm 0 W/m2
02:13 9.4 °C 7.3 °C 1028.8 hPa Calm     87% 0.0 mm 0 W/m2
02:30 9.4 °C 7.5 °C 1028.8 hPa Calm   1.6 km/h 88% 0.0 mm 0 W/m2
02:35 9.4 °C 7.5 °C 1028.8 hPa Calm     88% 0.0 mm 0 W/m2
02:40 9.3 °C 7.4 °C 1028.8 hPa Calm   1.6 km/h 88% 0.0 mm 0 W/m2
02:45 9.3 °C 7.4 °C 1028.5 hPa Calm   1.6 km/h 88% 0.0 mm 0 W/m2
02:50 9.3 °C 7.4 °C 1028.5 hPa Calm   1.6 km/h 88% 0.0 mm 0 W/m2
02:55 9.3 °C 7.4 °C 1028.5 hPa Calm     88% 0.0 mm 0 W/m2
03:00 9.2 °C 7.3 °C 1028.5 hPa Calm     88% 0.0 mm 0 W/m2
03:05 9.2 °C 7.3 °C 1028.5 hPa Calm   1.6 km/h 88% 0.0 mm 0 W/m2
03:10 9.1 °C 7.2 °C 1028.8 hPa Calm     88% 0.0 mm 0 W/m2
03:15 9.1 °C 7.4 °C 1028.8 hPa Calm   1.6 km/h 89% 0.0 mm 0 W/m2
03:20 9 °C 7.3 °C 1028.8 hPa Calm     89% 0.0 mm 0 W/m2
03:25 8.9 °C 7.2 °C 1028.8 hPa West 1.4 km/h 3.2 km/h 89% 0.0 mm 0 W/m2
03:30 8.9 °C 7.2 °C 1028.8 hPa Calm   1.6 km/h 89% 0.0 mm 0 W/m2
03:35 8.9 °C 7.3 °C 1028.5 hPa SW 1.4 km/h 3.2 km/h 90% 0.0 mm 0 W/m2
03:40 8.9 °C 7.2 °C 1028.5 hPa Calm     89% 0.0 mm 0 W/m2
03:45 9 °C 7.3 °C 1028.5 hPa SW 1.4 km/h 3.2 km/h 89% 0.0 mm 0 W/m2
04:02 8.9 °C 7.2 °C 1028.5 hPa Calm     89% 0.0 mm 0 W/m2
04:07 8.8 °C 7.1 °C 1028.5 hPa Calm     89% 0.0 mm 0 W/m2
04:12 8.8 °C 7.1 °C 1028.5 hPa Calm     89% 0.0 mm 0 W/m2
04:17 8.7 °C 7 °C 1028.5 hPa Calm     89% 0.0 mm 0 W/m2
04:22 8.7 °C 7.2 °C 1028.5 hPa Calm     90% 0.0 mm 0 W/m2
04:27 8.6 °C 7.1 °C 1028.5 hPa Calm     90% 0.0 mm 0 W/m2
04:32 8.5 °C 7 °C 1028.5 hPa Calm   1.6 km/h 90% 0.0 mm 0 W/m2
04:37 8.5 °C 7 °C 1028.5 hPa Calm   1.6 km/h 90% 0.0 mm 0 W/m2
04:42 8.4 °C 6.9 °C 1028.5 hPa Calm     90% 0.0 mm 0 W/m2
04:47 8.4 °C 7 °C 1028.5 hPa Calm     91% 0.0 mm 0 W/m2
04:52 8.3 °C 6.9 °C 1028.5 hPa Calm     91% 0.0 mm 0 W/m2
04:57 8.3 °C 6.9 °C 1028.5 hPa Calm     91% 0.0 mm 0 W/m2
05:02 8.3 °C 6.9 °C 1028.5 hPa Calm     91% 0.0 mm 0 W/m2
05:07 8.2 °C 6.8 °C 1028.5 hPa Calm     91% 0.0 mm 0 W/m2
05:12 8.2 °C 6.8 °C 1028.5 hPa Calm     91% 0.0 mm 0 W/m2
05:17 8.2 °C 6.8 °C 1028.5 hPa Calm     91% 0.0 mm 0 W/m2
05:22 8.2 °C 6.8 °C 1028.5 hPa Calm     91% 0.0 mm 0 W/m2
05:27 8.1 °C 6.7 °C 1028.5 hPa Calm     91% 0.0 mm 0 W/m2
05:32 8.1 °C 6.7 °C 1028.5 hPa Calm     91% 0.0 mm 0 W/m2
05:37 8.1 °C 6.7 °C 1028.5 hPa Calm     91% 0.0 mm 0 W/m2
05:42 8.1 °C 6.9 °C 1028.5 hPa Calm     92% 0.0 mm 0 W/m2
05:47 8.1 °C 6.9 °C 1028.5 hPa Calm     92% 0.0 mm 0 W/m2
05:52 8.1 °C 6.9 °C 1028.5 hPa Calm   4.8 km/h 92% 0.0 mm 0 W/m2
05:57 8.2 °C 7 °C 1028.5 hPa Calm     92% 0.0 mm 0 W/m2
06:14 8.2 °C 7 °C 1028.5 hPa Calm     92% 0.0 mm 0 W/m2
06:19 8.2 °C 7 °C 1028.5 hPa Calm   1.6 km/h 92% 0.0 mm 0 W/m2
06:24 8.2 °C 7 °C 1028.5 hPa Calm     92% 0.0 mm 0 W/m2
06:29 8.3 °C 7.1 °C 1028.5 hPa Calm     92% 0.0 mm 0 W/m2
06:34 8.3 °C 7.1 °C 1028.5 hPa Calm     92% 0.0 mm 0 W/m2
06:39 8.3 °C 7.1 °C 1028.5 hPa Calm     92% 0.0 mm 0 W/m2
06:44 8.3 °C 7.1 °C 1028.5 hPa Calm   4.8 km/h 92% 0.0 mm 0 W/m2
06:49 8.3 °C 7.1 °C 1028.5 hPa Calm   1.6 km/h 92% 0.0 mm 0 W/m2
06:54 8.4 °C 7.2 °C 1028.5 hPa Calm     92% 0.0 mm 0 W/m2
06:59 8.4 °C 7 °C 1028.1 hPa Calm   1.6 km/h 91% 0.0 mm 0 W/m2
07:04 8.3 °C 6.9 °C 1028.1 hPa Calm     91% 0.0 mm 0 W/m2
07:09 8.3 °C 6.9 °C 1028.5 hPa Calm     91% 0.0 mm 0 W/m2
07:14 8.3 °C 6.9 °C 1028.5 hPa Calm     91% 0.0 mm 0 W/m2
07:19 8.3 °C 6.9 °C 1028.1 hPa Calm     91% 0.0 mm 0 W/m2
07:24 8.3 °C 6.9 °C 1028.1 hPa Calm     91% 0.0 mm 0 W/m2
07:29 8.3 °C 6.9 °C 1028.1 hPa Calm     91% 0.0 mm 5 W/m2
07:34 8.2 °C 6.8 °C 1028.5 hPa Calm     91% 0.0 mm 7 W/m2
07:39 8.2 °C 6.8 °C 1028.5 hPa Calm     91% 0.0 mm 11 W/m2
07:44 8.2 °C 6.8 °C 1028.1 hPa Calm     91% 0.0 mm 16 W/m2
07:49 8.2 °C 7 °C 1028.5 hPa Calm   1.6 km/h 92% 0.0 mm 19 W/m2
07:54 8.3 °C 7.1 °C 1028.1 hPa SSW 1.4 km/h 1.6 km/h 92% 0.0 mm 23 W/m2
07:59 8.3 °C 7.1 °C 1028.5 hPa Calm     92% 0.0 mm 26 W/m2
08:16 8.6 °C 7.2 °C 1028.1 hPa Calm   3.2 km/h 91% 0.0 mm 39 W/m2
08:21 8.7 °C 7.3 °C 1028.1 hPa Calm     91% 0.0 mm 44 W/m2
08:26 8.7 °C 7.2 °C 1028.1 hPa Calm   3.2 km/h 90% 0.0 mm 47 W/m2
08:31 8.7 °C 7.2 °C 1028.1 hPa Calm   1.6 km/h 90% 0.0 mm 53 W/m2
08:36 8.8 °C 7.2 °C 1028.1 hPa Calm     90% 0.0 mm 53 W/m2
08:41 8.9 °C 7.3 °C 1028.5 hPa Calm     90% 0.0 mm 56 W/m2
08:46 8.9 °C 7.3 °C 1028.1 hPa Calm     90% 0.0 mm 60 W/m2
08:51 9.1 °C 7.4 °C 1028.1 hPa Calm     89% 0.0 mm 63 W/m2
08:56 9.2 °C 7.5 °C 1028.1 hPa NW 1.4 km/h 3.2 km/h 89% 0.0 mm 69 W/m2
09:01 9.3 °C 7.4 °C 1028.1 hPa Calm     88% 0.0 mm 69 W/m2
09:06 9.4 °C 7.5 °C 1028.1 hPa Calm   3.2 km/h 88% 0.0 mm 105 W/m2
09:11 9.5 °C 7.6 °C 1028.5 hPa Calm     88% 0.0 mm 176 W/m2
09:27 10.5 °C 8.3 °C 1028.5 hPa Calm   4.8 km/h 86% 0.0 mm 216 W/m2
09:32 10.8 °C 8.2 °C 1028.5 hPa East 4.7 km/h 4.8 km/h 84% 0.0 mm 243 W/m2
09:37 11.1 °C 8.3 °C 1028.8 hPa NE 3.2 km/h 4.8 km/h 83% 0.0 mm 257 W/m2
09:42 11.2 °C 8.4 °C 1028.5 hPa ESE 3.2 km/h 6.4 km/h 83% 0.0 mm 239 W/m2
09:47 11.4 °C 8.4 °C 1028.8 hPa Calm   1.6 km/h 82% 0.0 mm 251 W/m2
09:52 11.5 °C 8.4 °C 1028.8 hPa Calm     81% 0.0 mm 276 W/m2
09:57 11.5 °C 8.4 °C 1028.5 hPa Calm   3.2 km/h 81% 0.0 mm 309 W/m2
10:02 11.6 °C 8.5 °C 1028.8 hPa Calm   1.6 km/h 81% 0.0 mm 341 W/m2
10:07 11.8 °C 8.6 °C 1028.8 hPa NNW 1.4 km/h 3.2 km/h 81% 0.0 mm 362 W/m2
10:12 12.2 °C 9 °C 1028.8 hPa Calm   3.2 km/h 81% 0.0 mm 371 W/m2
10:17 12.4 °C 9 °C 1028.8 hPa Calm   3.2 km/h 80% 0.0 mm 385 W/m2
10:23 12.8 °C 9.1 °C 1028.8 hPa East 1.4 km/h 4.8 km/h 78% 0.0 mm 394 W/m2
10:28 13.1 °C 9.2 °C 1029.1 hPa ENE 1.4 km/h 4.8 km/h 77% 0.0 mm 401 W/m2
10:33 13.4 °C 9.3 °C 1029.1 hPa Calm   4.8 km/h 76% 0.0 mm 424 W/m2
10:38 13.7 °C 9.3 °C 1029.1 hPa NNE 1.4 km/h 3.2 km/h 75% 0.0 mm 441 W/m2
10:43 13.9 °C 9.1 °C 1029.1 hPa NE 4.7 km/h 6.4 km/h 73% 0.0 mm 450 W/m2
10:48 14 °C 9.4 °C 1029.1 hPa ENE 3.2 km/h 3.2 km/h 74% 0.0 mm 468 W/m2
11:06 14.8 °C 9.6 °C 1029.1 hPa ENE 1.4 km/h 3.2 km/h 71% 0.0 mm 522 W/m2
11:11 15.1 °C 9.5 °C 1028.8 hPa ENE 1.4 km/h 3.2 km/h 69% 0.0 mm 510 W/m2
11:16 15.4 °C 10 °C 1028.8 hPa Calm   4.8 km/h 70% 0.0 mm 517 W/m2
11:21 15.7 °C 10 °C 1028.8 hPa ENE 3.2 km/h 3.2 km/h 69% 0.0 mm 531 W/m2
11:26 15.9 °C 9.8 °C 1028.8 hPa Calm   4.8 km/h 67% 0.0 mm 547 W/m2
11:31 16.1 °C 9.7 °C 1028.8 hPa Calm   4.8 km/h 66% 0.0 mm 536 W/m2
11:36 16.3 °C 9.9 °C 1028.8 hPa Calm   3.2 km/h 66% 0.0 mm 522 W/m2
11:41 16.4 °C 10 °C 1028.8 hPa East 3.2 km/h 6.4 km/h 66% 0.0 mm 512 W/m2
11:46 16.5 °C 10.1 °C 1028.5 hPa SE 4.7 km/h 11.3 km/h 66% 0.0 mm 538 W/m2
11:51 16.7 °C 10.3 °C 1028.5 hPa SE 1.4 km/h 6.4 km/h 66% 0.0 mm 566 W/m2
11:56 17 °C 10.4 °C 1028.5 hPa ENE 3.2 km/h 9.7 km/h 65% 0.0 mm 577 W/m2
12:01 17.4 °C 9.3 °C 1028.5 hPa SE 4.7 km/h 16.1 km/h 59% 0.0 mm 608 W/m2
12:06 17.5 °C 9.4 °C 1028.5 hPa East 1.4 km/h 9.7 km/h 59% 0.0 mm 628 W/m2
12:25 17.9 °C 9.3 °C 1028.5 hPa ENE 4.7 km/h 11.3 km/h 57% 0.0 mm 744 W/m2
12:30 18.2 °C 10.1 °C 1028.5 hPa East 3.2 km/h 4.8 km/h 59% 0.0 mm 610 W/m2
12:35 18.3 °C 9.4 °C 1028.1 hPa NE 3.2 km/h 4.8 km/h 56% 0.0 mm 322 W/m2
12:40 18.3 °C 9.1 °C 1028.1 hPa East 1.4 km/h 4.8 km/h 55% 0.0 mm 717 W/m2
12:45 18.4 °C 9.7 °C 1028.1 hPa SW 1.4 km/h 9.7 km/h 57% 0.0 mm 724 W/m2
12:50 18.6 °C 10.2 °C 1028.1 hPa Calm   4.8 km/h 58% 0.0 mm 587 W/m2
12:55 18.8 °C 10.1 °C 1027.8 hPa NE 4.7 km/h 4.8 km/h 57% 0.0 mm 557 W/m2
13:01 18.9 °C 9.9 °C 1027.8 hPa SE 3.2 km/h 8 km/h 56% 0.0 mm 708 W/m2
13:06 18.9 °C 9.9 °C 1027.8 hPa North 1.4 km/h 6.4 km/h 56% 0.0 mm 621 W/m2
13:11 19.1 °C 10.1 °C 1027.8 hPa SE 1.4 km/h 4.8 km/h 56% 0.0 mm 601 W/m2
13:16 19.2 °C 9.9 °C 1027.8 hPa East 3.2 km/h 6.4 km/h 55% 0.0 mm 434 W/m2
13:21 19.1 °C 10.1 °C 1027.4 hPa ESE 1.4 km/h 6.4 km/h 56% 0.0 mm 355 W/m2
13:26 19 °C 10 °C 1027.4 hPa NE 4.7 km/h 4.8 km/h 56% 0.0 mm 443 W/m2
13:31 19 °C 9.8 °C 1027.4 hPa Calm   9.7 km/h 55% 0.0 mm 489 W/m2
13:36 19.1 °C 10.1 °C 1027.4 hPa East 3.2 km/h 4.8 km/h 56% 0.0 mm 506 W/m2
13:41 19.1 °C 10.6 °C 1027.4 hPa ENE 3.2 km/h 4.8 km/h 58% 0.0 mm 524 W/m2
13:46 19.2 °C 10.2 °C 1027.4 hPa ESE 3.2 km/h 4.8 km/h 56% 0.0 mm 369 W/m2
13:51 19.3 °C 10.6 °C 1027.4 hPa Calm   3.2 km/h 57% 0.0 mm 346 W/m2
13:56 19.3 °C 10.8 °C 1027.4 hPa Calm   1.6 km/h 58% 0.0 mm 278 W/m2
14:01 19.2 °C 9.7 °C 1027.4 hPa NNW 3.2 km/h 4.8 km/h 54% 0.0 mm 281 W/m2
14:06 19 °C 9.5 °C 1027.4 hPa ENE 3.2 km/h 9.7 km/h 54% 0.0 mm 290 W/m2
14:11 18.9 °C 9.7 °C 1027.1 hPa ESE 3.2 km/h 9.7 km/h 55% 0.0 mm 353 W/m2
14:16 18.9 °C 9.7 °C 1027.1 hPa SE 1.4 km/h 14.5 km/h 55% 0.0 mm 357 W/m2
14:21 18.9 °C 9.7 °C 1027.1 hPa East 4.7 km/h 4.8 km/h 55% 0.0 mm 439 W/m2
14:26 19.1 °C 9.8 °C 1027.1 hPa NNE 1.4 km/h 4.8 km/h 55% 0.0 mm 497 W/m2
14:31 19.2 °C 10.2 °C 1026.8 hPa Calm   4.8 km/h 56% 0.0 mm 570 W/m2
14:36 19.4 °C 9.9 °C 1026.8 hPa East 4.7 km/h 9.7 km/h 54% 0.0 mm 536 W/m2
14:41 19.4 °C 9.9 °C 1026.8 hPa NNE 3.2 km/h 6.4 km/h 54% 0.0 mm 434 W/m2
14:46 19.5 °C 9.9 °C 1026.8 hPa East 3.2 km/h 4.8 km/h 54% 0.0 mm 448 W/m2
14:51 19.5 °C 9.9 °C 1026.8 hPa ESE 4.7 km/h 8 km/h 54% 0.0 mm 417 W/m2
14:56 19.4 °C 9.9 °C 1026.4 hPa SE 3.2 km/h 9.7 km/h 54% 0.0 mm 392 W/m2
15:01 19.4 °C 10.1 °C 1026.4 hPa ENE 1.4 km/h 3.2 km/h 55% 0.0 mm 418 W/m2
15:06 19.4 °C 9.9 °C 1026.4 hPa North 3.2 km/h 9.7 km/h 54% 0.0 mm 424 W/m2
15:11 19.4 °C 10.4 °C 1026.4 hPa Calm   4.8 km/h 56% 0.0 mm 418 W/m2
15:16 19.5 °C 10.5 °C 1026.4 hPa ESE 1.4 km/h 6.4 km/h 56% 0.0 mm 373 W/m2
15:21 19.6 °C 10 °C 1026.4 hPa ENE 3.2 km/h 6.4 km/h 54% 0.0 mm 276 W/m2
15:26 19.7 °C 10.4 °C 1026.4 hPa ESE 1.4 km/h 8 km/h 55% 0.0 mm 285 W/m2
15:31 19.7 °C 10.4 °C 1026.1 hPa NE 1.4 km/h 6.4 km/h 55% 0.0 mm 281 W/m2
15:52 20 °C 10.4 °C 1026.1 hPa ENE 6.4 km/h 9.7 km/h 54% 0.0 mm 436 W/m2
15:57 20.1 °C 10.2 °C 1026.1 hPa NNE 14.5 km/h 14.5 km/h 53% 0.0 mm 360 W/m2
16:02 20.1 °C 10.2 °C 1025.7 hPa East 1.4 km/h 3.2 km/h 53% 0.0 mm 271 W/m2
16:07 20 °C 10.4 °C 1025.7 hPa East 6.4 km/h 8 km/h 54% 0.0 mm 290 W/m2
16:12 20 °C 10.4 °C 1025.7 hPa Calm   4.8 km/h 54% 0.0 mm 371 W/m2
16:17 20.1 °C 10.2 °C 1025.7 hPa ENE 1.4 km/h 9.7 km/h 53% 0.0 mm 308 W/m2
16:22 19.9 °C 10.3 °C 1025.7 hPa SE 1.4 km/h 4.8 km/h 54% 0.0 mm 343 W/m2
16:27 19.9 °C 10.3 °C 1025.7 hPa NE 1.4 km/h 3.2 km/h 54% 0.0 mm 283 W/m2
16:32 19.8 °C 10.2 °C 1025.7 hPa North 1.4 km/h 8 km/h 54% 0.0 mm 250 W/m2
16:37 19.7 °C 10.1 °C 1025.7 hPa NE 3.2 km/h 9.7 km/h 54% 0.0 mm 253 W/m2
16:42 19.6 °C 10 °C 1025.7 hPa East 6.4 km/h 8 km/h 54% 0.0 mm 221 W/m2
16:47 19.6 °C 10.3 °C 1025.7 hPa ENE 1.4 km/h 12.9 km/h 55% 0.0 mm 287 W/m2
16:52 19.5 °C 10.5 °C 1025.4 hPa ENE 6.4 km/h 8 km/h 56% 0.0 mm 255 W/m2
16:57 19.5 °C 10.5 °C 1025.4 hPa NE 3.2 km/h 12.9 km/h 56% 0.0 mm 260 W/m2
17:02 19.6 °C 10.6 °C 1025.4 hPa SE 3.2 km/h 12.9 km/h 56% 0.0 mm 234 W/m2
17:07 19.5 °C 10.5 °C 1025.4 hPa ENE 3.2 km/h 11.3 km/h 56% 0.0 mm 199 W/m2
17:12 19.6 °C 10.8 °C 1025.4 hPa ENE 1.4 km/h 3.2 km/h 57% 0.0 mm 204 W/m2
17:29 19.6 °C 10.8 °C 1025.4 hPa SE 3.2 km/h 8 km/h 57% 0.0 mm 302 W/m2
17:34 19.7 °C 10.7 °C 1025.4 hPa SE 1.4 km/h 8 km/h 56% 0.0 mm 295 W/m2
17:39 19.8 °C 10.5 °C 1025.4 hPa ENE 3.2 km/h 6.4 km/h 55% 0.0 mm 276 W/m2
17:44 19.9 °C 10.6 °C 1025.1 hPa NE 4.7 km/h 4.8 km/h 55% 0.0 mm 257 W/m2
17:49 19.9 °C 10.9 °C 1025.1 hPa NE 1.4 km/h 6.4 km/h 56% 0.0 mm 239 W/m2
17:54 19.9 °C 10.6 °C 1025.1 hPa ESE 6.4 km/h 12.9 km/h 55% 0.0 mm 209 W/m2
17:59 19.7 °C 10.7 °C 1025.1 hPa ESE 1.4 km/h 6.4 km/h 56% 0.0 mm 199 W/m2
18:04 19.6 °C 10.8 °C 1025.1 hPa East 4.7 km/h 12.9 km/h 57% 0.0 mm 128 W/m2
18:09 19.6 °C 10.8 °C 1025.1 hPa NE 3.2 km/h 6.4 km/h 57% 0.0 mm 192 W/m2
18:14 19.6 °C 10.8 °C 1025.1 hPa Calm   3.2 km/h 57% 0.0 mm 163 W/m2
18:19 19.6 °C 11.1 °C 1025.1 hPa ENE 1.4 km/h 8 km/h 58% 0.0 mm 153 W/m2
18:24 19.4 °C 10.9 °C 1025.1 hPa Calm   4.8 km/h 58% 0.0 mm 109 W/m2
18:29 19.3 °C 10.8 °C 1025.1 hPa ESE 1.4 km/h 4.8 km/h 58% 0.0 mm 97 W/m2
18:34 19.1 °C 11.2 °C 1025.1 hPa ESE 1.4 km/h 3.2 km/h 60% 0.0 mm 77 W/m2
18:39 18.8 °C 11.1 °C 1025.1 hPa Calm   3.2 km/h 61% 0.0 mm 65 W/m2
18:44 18.7 °C 11.8 °C 1025.1 hPa Calm     64% 0.0 mm 56 W/m2
18:49 18.4 °C 11.9 °C 1025.1 hPa Calm     66% 0.0 mm 47 W/m2
18:54 18.2 °C 12 °C 1025.1 hPa Calm     67% 0.0 mm 40 W/m2
18:59 17.9 °C 11.9 °C 1024.7 hPa SE 1.4 km/h 1.6 km/h 68% 0.0 mm 35 W/m2
19:04 17.6 °C 11.6 °C 1025.1 hPa Calm   1.6 km/h 68% 0.0 mm 28 W/m2
19:09 17.2 °C 11.5 °C 1025.1 hPa Calm     69% 0.0 mm 23 W/m2
19:14 16.9 °C 11.4 °C 1024.7 hPa Calm   1.6 km/h 70% 0.0 mm 18 W/m2
19:19 16.7 °C 11.4 °C 1024.7 hPa Calm     71% 0.0 mm 12 W/m2
19:24 16.5 °C 11.2 °C 1024.7 hPa Calm     71% 0.0 mm 7 W/m2
19:29 16.3 °C 11 °C 1024.7 hPa Calm     71% 0.0 mm 0 W/m2
19:34 16.1 °C 11.1 °C 1024.7 hPa SE 3.2 km/h 3.2 km/h 72% 0.0 mm 0 W/m2
19:39 15.8 °C 11 °C 1024.7 hPa Calm   1.6 km/h 73% 0.0 mm 0 W/m2
19:44 15.6 °C 11 °C 1024.7 hPa SE 1.4 km/h 3.2 km/h 74% 0.0 mm 0 W/m2
Juneau County Weather
Compliments of Weather Underground - 2 mb